Time;durP1;ratioP1;P1;durP2;ratioP2;P2;SDS_P1;SDS_P2;PMS_P1;PMS_P2;Temp;Humidity;BMP_temperature;BMP_pressure;BME280_temperature;BME280_humidity;BME280_pressure;Samples;Min_cycle;Max_cycle;Signal;HPM_P1;HPM_P2
2023/05/28 00:00:35;;;;;;;16.37;14.77;;;24.00;67.10;;;;;;4753934;55;21019;-35
2023/05/28 00:05:36;;;;;;;15.13;13.62;;;23.90;67.00;;;;;;4739960;59;21097;-36
2023/05/28 00:10:36;;;;;;;14.77;13.27;;;24.00;67.10;;;;;;4744784;55;21532;-33
2023/05/28 00:15:37;;;;;;;15.13;13.52;;;24.00;67.10;;;;;;4921190;55;20998;-37
2023/05/28 00:20:38;;;;;;;15.75;14.05;;;24.00;67.00;;;;;;4740223;55;21488;-34
2023/05/28 00:25:39;;;;;;;15.77;14.15;;;24.00;67.10;;;;;;4809411;55;21555;-34
2023/05/28 00:30:40;;;;;;;15.35;13.80;;;24.00;67.10;;;;;;4776377;55;21522;-34
2023/05/28 00:35:41;;;;;;;16.75;14.10;;;24.00;67.20;;;;;;4793083;55;21574;-35
2023/05/28 00:40:45;;;;;;;16.48;14.80;;;24.00;67.10;;;;;;4905031;55;21092;-34
2023/05/28 00:45:48;;;;;;;16.45;14.75;;;24.00;67.10;;;;;;4777203;54;21494;-32
2023/05/28 00:50:49;;;;;;;15.38;13.75;;;23.90;67.10;;;;;;4739111;59;22672;-33
2023/05/28 00:55:51;;;;;;;16.60;14.80;;;24.00;67.10;;;;;;4812376;55;21605;-34
2023/05/28 01:00:52;;;;;;;16.60;14.90;;;23.90;67.10;;;;;;4799647;55;21061;-33
2023/05/28 01:05:53;;;;;;;15.13;13.52;;;23.90;67.10;;;;;;4770144;55;21053;-32
2023/05/28 01:10:54;;;;;;;15.25;13.73;;;23.90;67.10;;;;;;4872894;55;21017;-33
2023/05/28 01:15:55;;;;;;;16.02;14.32;;;23.90;67.10;;;;;;4759936;55;21037;-33
2023/05/28 01:20:56;;;;;;;16.50;14.75;;;23.90;67.20;;;;;;4863651;55;21128;-35
2023/05/28 01:25:59;;;;;;;15.57;13.88;;;24.00;67.20;;;;;;4793919;55;21461;-36
2023/05/28 01:30:59;;;;;;;16.08;14.35;;;24.00;67.10;;;;;;4768609;55;21602;-37
2023/05/28 01:36:02;;;;;;;16.02;13.55;;;23.90;67.10;;;;;;4848580;55;21097;-36
2023/05/28 01:41:03;;;;;;;15.05;13.55;;;23.90;67.10;;;;;;4763890;55;21013;-33
2023/05/28 01:46:04;;;;;;;14.70;12.98;;;23.90;67.10;;;;;;4831060;55;21086;-34
2023/05/28 01:51:06;;;;;;;16.08;14.45;;;23.90;67.10;;;;;;4740332;59;21002;-34
2023/05/28 01:56:07;;;;;;;16.02;14.32;;;23.90;67.20;;;;;;4745104;55;21563;-33
2023/05/28 02:01:41;;;;;;;15.75;14.05;;;24.00;67.20;;;;;;4853138;55;21480;-34
2023/05/28 02:06:45;;;;;;;16.10;14.40;;;23.90;67.20;;;;;;5076780;55;21463;-35
2023/05/28 02:11:46;;;;;;;14.85;13.35;;;23.90;67.20;;;;;;4870796;55;21013;-37
2023/05/28 02:16:52;;;;;;;15.57;13.62;;;23.90;67.20;;;;;;4807506;55;21041;-38
2023/05/28 02:21:56;;;;;;;16.12;14.43;;;23.90;67.20;;;;;;4811243;55;21542;-33
2023/05/28 02:26:57;;;;;;;16.90;15.10;;;23.90;67.20;;;;;;4766228;55;21009;-34
2023/05/28 02:31:58;;;;;;;15.98;14.27;;;23.90;67.20;;;;;;4740188;55;21009;-33
2023/05/28 02:37:00;;;;;;;15.82;14.13;;;23.90;67.20;;;;;;4739648;59;21038;-34
2023/05/28 02:42:00;;;;;;;15.32;13.68;;;23.90;67.20;;;;;;4740036;59;21876;-34
2023/05/28 02:47:01;;;;;;;16.45;14.13;;;23.90;67.20;;;;;;4739862;59;21105;-33
2023/05/28 02:52:02;;;;;;;17.58;14.27;;;23.90;67.10;;;;;;4911346;55;21069;-38
2023/05/28 02:57:04;;;;;;;15.95;13.85;;;23.90;67.20;;;;;;4815250;55;21033;-34
2023/05/28 03:02:05;;;;;;;20.25;15.32;;;23.90;67.20;;;;;;4789328;55;21049;-37
2023/05/28 03:07:06;;;;;;;17.00;14.48;;;23.90;67.20;;;;;;4785817;55;21117;-35
2023/05/28 03:12:08;;;;;;;16.85;14.93;;;23.90;67.20;;;;;;4740014;59;21641;-38
2023/05/28 03:17:08;;;;;;;18.27;14.87;;;23.90;67.20;;;;;;4755984;55;21325;-33
2023/05/28 03:22:09;;;;;;;17.50;14.90;;;23.90;67.20;;;;;;4781517;55;21097;-37
2023/05/28 03:27:10;;;;;;;19.05;14.85;;;23.90;67.20;;;;;;4748319;55;21104;-35
2023/05/28 03:32:11;;;;;;;19.23;15.27;;;23.90;67.20;;;;;;4755786;55;21010;-36
2023/05/28 03:37:15;;;;;;;17.48;14.40;;;23.90;67.20;;;;;;4797746;55;21523;-32
2023/05/28 03:42:15;;;;;;;17.00;14.23;;;23.90;67.20;;;;;;4765381;55;21145;-34
2023/05/28 03:47:16;;;;;;;18.98;15.02;;;23.90;67.20;;;;;;4771966;55;21568;-35
2023/05/28 03:52:17;;;;;;;18.48;15.57;;;23.90;67.20;;;;;;4743738;55;21492;-32
2023/05/28 03:57:18;;;;;;;19.60;15.10;;;23.90;67.20;;;;;;4815068;55;21029;-38
2023/05/28 04:02:19;;;;;;;19.42;15.60;;;23.90;67.20;;;;;;4833288;55;21009;-38
2023/05/28 04:07:20;;;;;;;20.95;15.80;;;23.90;67.20;;;;;;4771427;55;21061;-38
2023/05/28 04:12:20;;;;;;;20.27;15.52;;;23.90;67.20;;;;;;4757399;55;21326;-34
2023/05/28 04:17:21;;;;;;;21.80;16.75;;;23.90;67.20;;;;;;4740481;58;21048;-33
2023/05/28 04:22:23;;;;;;;19.52;15.85;;;23.90;67.20;;;;;;4756087;55;21331;-32
2023/05/28 04:27:24;;;;;;;19.90;15.75;;;23.90;67.20;;;;;;4756637;55;21507;-37
2023/05/28 04:32:27;;;;;;;21.80;16.40;;;23.90;67.30;;;;;;4828868;55;21006;-34
2023/05/28 04:37:28;;;;;;;21.37;16.35;;;23.90;67.30;;;;;;4757532;55;21504;-37
2023/05/28 04:42:29;;;;;;;23.90;16.90;;;23.90;67.20;;;;;;4883284;55;21054;-36
2023/05/28 04:47:30;;;;;;;21.48;16.23;;;23.90;67.20;;;;;;4740162;59;21495;-35
2023/05/28 04:52:32;;;;;;;20.20;16.45;;;23.90;67.20;;;;;;4739920;55;21016;-37
2023/05/28 04:57:33;;;;;;;22.70;16.83;;;23.80;67.20;;;;;;4803411;55;21472;-34
2023/05/28 05:02:34;;;;;;;23.60;17.70;;;23.90;67.30;;;;;;4854880;55;21006;-37
2023/05/28 05:07:37;;;;;;;19.50;16.12;;;23.80;67.20;;;;;;4739729;59;21401;-38
2023/05/28 05:12:38;;;;;;;21.45;16.35;;;23.80;67.10;;;;;;4759843;55;21009;-38
2023/05/28 05:17:39;;;;;;;20.75;15.15;;;23.90;67.20;;;;;;4747145;55;21085;-33
2023/05/28 05:22:40;;;;;;;24.17;17.37;;;23.90;67.20;;;;;;4840448;55;21057;-37
2023/05/28 05:27:40;;;;;;;23.10;17.10;;;23.90;67.20;;;;;;4792620;55;21890;-35
2023/05/28 05:32:44;;;;;;;24.58;16.83;;;23.80;67.10;;;;;;4745589;55;21006;-37
2023/05/28 05:37:46;;;;;;;21.08;16.35;;;23.80;67.20;;;;;;4751852;55;21125;-34
2023/05/28 05:42:47;;;;;;;23.25;17.30;;;23.90;67.20;;;;;;4893177;55;21546;-37
2023/05/28 05:47:47;;;;;;;25.42;18.02;;;23.90;67.20;;;;;;4742904;55;21238;-32
2023/05/28 05:52:48;;;;;;;23.95;16.98;;;23.80;67.20;;;;;;4809434;55;21065;-34
2023/05/28 05:57:49;;;;;;;23.30;17.37;;;23.80;67.10;;;;;;4739878;59;21009;-36
2023/05/28 06:02:50;;;;;;;25.10;16.95;;;23.80;67.20;;;;;;4740177;59;21455;-38
2023/05/28 06:07:51;;;;;;;23.40;17.08;;;23.80;67.20;;;;;;4739739;59;21491;-35
2023/05/28 06:12:52;;;;;;;24.60;17.23;;;23.80;67.20;;;;;;4788781;54;21025;-37
2023/05/28 06:17:53;;;;;;;24.92;17.30;;;23.80;67.20;;;;;;4739725;59;21148;-40
2023/05/28 06:22:54;;;;;;;22.10;16.90;;;23.90;67.20;;;;;;4741125;55;21828;-38
2023/05/28 06:27:56;;;;;;;25.95;18.62;;;23.80;67.10;;;;;;4753262;55;21623;-36
2023/05/28 06:32:57;;;;;;;25.65;18.48;;;23.80;67.20;;;;;;4740197;59;21564;-39
2023/05/28 06:37:58;;;;;;;24.05;17.17;;;23.80;67.20;;;;;;4745183;55;21065;-38
2023/05/28 06:43:01;;;;;;;24.55;17.45;;;23.80;67.20;;;;;;4847787;55;21475;-32
2023/05/28 06:48:03;;;;;;;24.80;18.27;;;23.80;67.20;;;;;;4739831;55;21578;-40
2023/05/28 06:53:03;;;;;;;26.60;18.98;;;23.80;67.10;;;;;;4739943;59;22161;-40
2023/05/28 06:58:04;;;;;;;25.73;18.30;;;23.80;67.10;;;;;;4740095;59;21014;-35
2023/05/28 07:03:06;;;;;;;28.52;19.10;;;23.90;67.20;;;;;;4743255;55;21467;-33
2023/05/28 07:08:07;;;;;;;26.33;18.55;;;23.80;67.10;;;;;;4763389;55;21516;-37
2023/05/28 07:13:07;;;;;;;29.73;19.08;;;23.80;67.10;;;;;;4740195;59;21061;-37
2023/05/28 07:18:08;;;;;;;29.50;19.40;;;23.80;67.10;;;;;;4739966;55;21029;-37
2023/05/28 07:23:11;;;;;;;28.85;19.25;;;23.80;67.10;;;;;;4739545;59;21014;-34
2023/05/28 07:28:12;;;;;;;27.15;19.52;;;23.90;67.10;;;;;;4770360;55;21530;-35
2023/05/28 07:33:12;;;;;;;27.15;19.58;;;23.80;67.10;;;;;;4752360;55;20998;-35
2023/05/28 07:38:14;;;;;;;29.20;20.52;;;23.80;67.10;;;;;;4778239;55;21065;-38
2023/05/28 07:43:15;;;;;;;27.50;19.80;;;23.80;67.00;;;;;;4740435;55;21498;-34
2023/05/28 07:48:16;;;;;;;27.05;19.12;;;23.80;67.00;;;;;;4760755;55;21096;-37
2023/05/28 07:53:17;;;;;;;30.20;20.55;;;23.80;67.00;;;;;;4803023;55;21547;-39
2023/05/28 07:58:18;;;;;;;28.95;21.00;;;23.80;67.10;;;;;;4798936;55;21516;-36
2023/05/28 08:03:19;;;;;;;25.85;19.30;;;23.80;67.00;;;;;;4775169;54;21069;-32
2023/05/28 08:08:20;;;;;;;32.00;21.67;;;23.80;67.00;;;;;;4739082;55;21033;-33
2023/05/28 08:13:20;;;;;;;28.50;19.90;;;23.80;67.00;;;;;;4796960;55;21073;-36
2023/05/28 08:18:21;;;;;;;34.72;22.13;;;23.80;67.00;;;;;;4896890;55;21081;-37
2023/05/28 08:23:22;;;;;;;31.20;21.58;;;23.80;67.00;;;;;;4753727;55;21068;-34
2023/05/28 08:28:24;;;;;;;30.10;21.62;;;23.80;67.00;;;;;;4762150;55;21010;-32
2023/05/28 08:33:25;;;;;;;29.50;21.60;;;23.80;67.00;;;;;;4794435;55;21065;-32
2023/05/28 08:38:27;;;;;;;29.23;19.77;;;23.80;67.00;;;;;;4739196;59;21492;-34
2023/05/28 08:43:28;;;;;;;33.03;22.05;;;23.80;66.90;;;;;;4817809;55;20990;-36
2023/05/28 08:48:33;;;;;;;30.73;21.40;;;23.80;66.90;;;;;;4741074;55;21113;-31
2023/05/28 08:53:43;;;;;;;29.73;22.62;;;23.80;66.90;;;;;;4861178;55;20993;-38
2023/05/28 08:58:44;;;;;;;32.45;23.12;;;23.80;67.00;;;;;;4742251;55;21544;-37
2023/05/28 09:03:45;;;;;;;31.45;22.85;;;23.80;66.90;;;;;;4817284;55;21096;-35
2023/05/28 09:08:47;;;;;;;30.95;21.35;;;23.80;66.90;;;;;;4779329;55;21560;-34
2023/05/28 09:13:48;;;;;;;32.05;22.40;;;23.80;66.90;;;;;;4771175;55;21088;-34
2023/05/28 09:18:51;;;;;;;30.48;22.25;;;23.80;66.90;;;;;;4767731;55;21334;-36
2023/05/28 09:23:52;;;;;;;31.12;23.70;;;23.80;66.90;;;;;;4740631;55;21124;-39
2023/05/28 09:28:52;;;;;;;32.95;23.75;;;23.80;66.90;;;;;;4793359;54;21461;-38
2023/05/28 09:33:53;;;;;;;33.80;23.80;;;23.80;66.90;;;;;;4807152;55;21073;-34
2023/05/28 09:38:54;;;;;;;31.77;22.92;;;23.90;67.00;;;;;;4748685;55;21109;-33
2023/05/28 09:43:57;;;;;;;31.27;22.37;;;23.80;66.90;;;;;;4740002;59;21069;-34
2023/05/28 09:48:59;;;;;;;33.22;23.77;;;23.80;67.00;;;;;;4816860;55;21061;-37
2023/05/28 09:54:06;;;;;;;32.38;23.48;;;23.80;66.90;;;;;;4760109;55;21542;-37
2023/05/28 09:59:08;;;;;;;31.00;23.48;;;23.80;66.90;;;;;;4812324;55;21519;-36
2023/05/28 10:04:10;;;;;;;29.80;23.50;;;23.80;66.90;;;;;;4820187;55;21073;-36
2023/05/28 10:09:15;;;;;;;33.35;24.73;;;23.80;66.80;;;;;;4759461;55;21065;-40
2023/05/28 10:14:16;;;;;;;32.17;24.40;;;23.80;66.80;;;;;;4796371;55;21049;-33
2023/05/28 10:19:17;;;;;;;30.45;23.15;;;23.80;66.80;;;;;;4744905;55;21064;-34
2023/05/28 10:24:19;;;;;;;29.67;22.00;;;23.80;67.00;;;;;;4740008;59;21540;-35
2023/05/28 10:29:20;;;;;;;30.23;23.50;;;23.80;66.80;;;;;;4771061;55;21033;-38
2023/05/28 10:34:30;;;;;;;29.63;23.02;;;23.80;66.80;;;;;;4743638;55;21452;-39
2023/05/28 10:40:09;;;;;;;34.92;25.12;;;23.80;66.80;;;;;;4783646;54;21539;-33
2023/05/28 10:45:11;;;;;;;30.30;22.85;;;23.80;66.80;;;;;;4739884;59;21049;-43
2023/05/28 10:50:14;;;;;;;31.00;24.00;;;23.80;66.80;;;;;;4808575;55;21575;-35
2023/05/28 10:55:18;;;;;;;31.65;22.35;;;23.80;66.80;;;;;;4740044;59;21507;-34
2023/05/28 11:00:25;;;;;;;28.85;21.98;;;23.80;66.80;;;;;;4786866;55;21011;-35
2023/05/28 11:05:25;;;;;;;31.70;24.67;;;23.80;66.90;;;;;;4749309;55;21551;-35
2023/05/28 11:10:28;;;;;;;30.23;22.92;;;23.80;66.80;;;;;;4807986;54;21021;-33
2023/05/28 11:15:30;;;;;;;31.65;23.75;;;23.80;66.80;;;;;;4767348;55;21444;-33
2023/05/28 11:20:31;;;;;;;31.08;22.87;;;23.80;66.70;;;;;;4774443;55;21037;-33
2023/05/28 11:25:32;;;;;;;28.00;21.70;;;23.80;66.80;;;;;;4756556;55;21499;-35
2023/05/28 11:30:33;;;;;;;32.25;24.20;;;23.80;66.80;;;;;;4745691;55;21018;-34
2023/05/28 11:35:34;;;;;;;30.55;23.85;;;23.90;66.80;;;;;;4739614;59;21180;-39
2023/05/28 11:40:35;;;;;;;31.60;24.15;;;23.80;66.70;;;;;;4754491;55;21061;-40
2023/05/28 11:45:37;;;;;;;31.25;23.75;;;23.90;66.70;;;;;;4877934;55;21586;-33
2023/05/28 11:50:38;;;;;;;31.75;23.08;;;23.90;66.60;;;;;;4740491;55;21543;-35
2023/05/28 11:55:39;;;;;;;29.37;23.08;;;23.90;66.70;;;;;;4739614;59;21148;-35
2023/05/28 12:00:40;;;;;;;28.33;23.33;;;23.90;66.70;;;;;;4770322;55;21030;-32
2023/05/28 12:05:41;;;;;;;30.45;23.55;;;24.00;66.30;;;;;;4796293;55;21483;-40
2023/05/28 12:10:42;;;;;;;28.55;22.98;;;24.10;66.10;;;;;;4752619;55;21158;-39
2023/05/28 12:15:43;;;;;;;29.30;23.58;;;24.10;66.10;;;;;;4870047;55;21081;-34
2023/05/28 12:20:44;;;;;;;28.20;24.20;;;24.10;66.00;;;;;;4786952;55;20986;-45
2023/05/28 12:25:52;;;;;;;32.65;24.27;;;24.10;66.10;;;;;;4751135;54;21077;-37
2023/05/28 12:30:54;;;;;;;29.73;24.23;;;24.00;66.00;;;;;;4821028;55;21472;-35
2023/05/28 12:35:56;;;;;;;28.30;23.65;;;24.00;66.00;;;;;;4739969;59;21528;-34
2023/05/28 12:40:58;;;;;;;30.37;24.25;;;24.10;66.00;;;;;;4805519;55;21021;-36
2023/05/28 12:45:59;;;;;;;29.10;22.33;;;24.00;66.60;;;;;;4835482;55;21456;-34
2023/05/28 12:51:00;;;;;;;27.77;22.60;;;24.10;66.20;;;;;;4755820;55;21457;-34
2023/05/28 12:56:01;;;;;;;28.65;23.65;;;24.00;66.00;;;;;;4788226;55;21196;-33
2023/05/28 13:01:02;;;;;;;29.80;23.45;;;24.00;66.00;;;;;;4847206;55;21463;-34
2023/05/28 13:06:03;;;;;;;29.12;23.50;;;24.00;66.00;;;;;;4739850;59;21065;-34
2023/05/28 13:11:04;;;;;;;28.45;23.52;;;24.10;66.10;;;;;;4848671;55;21483;-34
2023/05/28 13:16:05;;;;;;;28.87;23.67;;;24.00;66.10;;;;;;4879773;55;21487;-33
2023/05/28 13:21:06;;;;;;;26.10;22.55;;;24.00;66.00;;;;;;4740383;59;21053;-32
2023/05/28 13:26:10;;;;;;;28.30;23.08;;;24.00;66.00;;;;;;4813649;55;21061;-37
2023/05/28 13:31:11;;;;;;;27.35;22.00;;;24.10;66.10;;;;;;4781525;55;21085;-34
2023/05/28 13:36:13;;;;;;;27.20;22.77;;;24.00;66.00;;;;;;4739215;59;21045;-33
2023/05/28 13:41:15;;;;;;;29.33;23.62;;;24.00;66.00;;;;;;4740022;59;21009;-40
2023/05/28 13:46:18;;;;;;;28.62;23.27;;;24.00;66.00;;;;;;4823114;55;21476;-33
2023/05/28 13:51:19;;;;;;;28.60;21.98;;;24.00;66.00;;;;;;4783512;55;21017;-37
2023/05/28 13:56:21;;;;;;;27.08;22.25;;;24.10;66.00;;;;;;4757161;55;21480;-34
2023/05/28 14:01:21;;;;;;;26.80;20.90;;;24.10;66.10;;;;;;4792697;55;21586;-37
2023/05/28 14:06:22;;;;;;;27.60;22.55;;;24.00;66.70;;;;;;4750517;55;21005;-35
2023/05/28 14:11:23;;;;;;;26.15;22.48;;;24.00;65.90;;;;;;4844910;55;21006;-34
2023/05/28 14:16:24;;;;;;;28.92;22.62;;;24.00;66.00;;;;;;4739917;59;21013;-35
2023/05/28 14:21:25;;;;;;;25.62;21.70;;;24.00;66.00;;;;;;4740034;59;21269;-36
2023/05/28 14:26:26;;;;;;;25.27;21.48;;;24.00;66.00;;;;;;4806366;55;21073;-33
2023/05/28 14:31:27;;;;;;;25.30;22.02;;;24.00;65.90;;;;;;4864019;55;21484;-35
2023/05/28 14:36:27;;;;;;;25.88;22.23;;;24.10;65.90;;;;;;4767446;55;21034;-34
2023/05/28 14:41:28;;;;;;;26.00;21.92;;;24.00;66.00;;;;;;4743232;55;21492;-33
2023/05/28 14:46:29;;;;;;;26.20;22.17;;;24.10;66.00;;;;;;4791333;55;21009;-37
2023/05/28 14:51:30;;;;;;;26.25;21.87;;;24.10;65.90;;;;;;4900954;55;21020;-36
2023/05/28 14:56:31;;;;;;;23.95;21.35;;;24.00;65.90;;;;;;4904323;55;21006;-36
2023/05/28 15:01:32;;;;;;;25.42;20.60;;;24.00;65.90;;;;;;4745171;55;21463;-30
2023/05/28 15:06:33;;;;;;;25.10;21.40;;;24.10;66.00;;;;;;4817918;55;21338;-34
2023/05/28 15:11:34;;;;;;;25.27;21.98;;;24.10;66.00;;;;;;4780773;55;21494;-36
2023/05/28 15:16:35;;;;;;;24.42;20.88;;;24.10;65.90;;;;;;4788865;55;21006;-34
2023/05/28 15:21:36;;;;;;;26.05;21.62;;;24.10;65.90;;;;;;4978640;55;21241;-35
2023/05/28 15:26:37;;;;;;;25.80;21.92;;;24.00;65.90;;;;;;4742281;55;21127;-33
2023/05/28 15:31:39;;;;;;;25.77;21.92;;;24.10;65.90;;;;;;4755168;55;21079;-38
2023/05/28 15:36:41;;;;;;;26.37;21.10;;;24.10;65.90;;;;;;4774292;55;21049;-33
2023/05/28 15:41:45;;;;;;;24.33;21.60;;;24.10;65.90;;;;;;4842892;55;21073;-34
2023/05/28 15:46:46;;;;;;;24.55;21.40;;;24.10;65.90;;;;;;4823424;55;21503;-37
2023/05/28 15:51:47;;;;;;;24.98;22.02;;;24.10;65.90;;;;;;4778782;54;21013;-33
2023/05/28 15:56:49;;;;;;;24.75;20.75;;;24.10;65.90;;;;;;4864455;55;21531;-35
2023/05/28 16:01:51;;;;;;;25.35;22.08;;;24.10;66.00;;;;;;4740172;59;21033;-35
2023/05/28 16:06:52;;;;;;;24.60;21.30;;;24.10;66.10;;;;;;4852854;55;21056;-35
2023/05/28 16:11:55;;;;;;;24.63;21.12;;;24.10;66.00;;;;;;4740210;59;21033;-38
2023/05/28 16:16:58;;;;;;;25.15;22.08;;;24.10;66.00;;;;;;4780290;55;21009;-37
2023/05/28 16:21:59;;;;;;;24.58;21.62;;;24.10;66.00;;;;;;4770104;55;21075;-32
2023/05/28 16:27:04;;;;;;;26.87;21.70;;;24.10;66.00;;;;;;4740429;59;21624;-33
2023/05/28 16:32:07;;;;;;;23.60;21.10;;;24.10;66.10;;;;;;4793061;55;21097;-33
2023/05/28 16:37:09;;;;;;;24.02;21.12;;;24.10;66.10;;;;;;4865545;55;21547;-37
2023/05/28 16:42:10;;;;;;;23.98;21.30;;;24.10;66.10;;;;;;4775868;55;20981;-34
2023/05/28 16:47:12;;;;;;;25.37;21.15;;;24.10;66.10;;;;;;4740127;59;21065;-38
2023/05/28 16:52:13;;;;;;;25.65;22.25;;;24.10;66.10;;;;;;4867036;55;21101;-36
2023/05/28 16:57:13;;;;;;;24.75;20.80;;;24.00;66.00;;;;;;4788462;55;21666;-34
2023/05/28 17:02:14;;;;;;;24.37;21.20;;;24.10;66.10;;;;;;4740020;59;21088;-34
2023/05/28 17:07:16;;;;;;;24.02;20.65;;;24.10;66.10;;;;;;4759308;55;21635;-33
2023/05/28 17:12:16;;;;;;;24.27;20.75;;;24.10;66.10;;;;;;4809019;55;21005;-34
2023/05/28 17:17:17;;;;;;;24.20;21.17;;;24.10;66.10;;;;;;4783760;55;21002;-34
2023/05/28 17:22:18;;;;;;;23.80;20.37;;;24.10;66.20;;;;;;4740333;58;21017;-33
2023/05/28 17:27:19;;;;;;;22.08;19.52;;;24.10;66.10;;;;;;4739971;59;21030;-35
2023/05/28 17:32:20;;;;;;;23.15;20.02;;;24.00;66.10;;;;;;4766002;55;21065;-33
2023/05/28 17:37:21;;;;;;;22.23;19.83;;;24.10;66.10;;;;;;4771804;55;21057;-32
2023/05/28 17:42:22;;;;;;;23.17;20.75;;;24.10;66.10;;;;;;4789102;55;21109;-36
2023/05/28 17:47:23;;;;;;;22.33;19.92;;;24.10;66.10;;;;;;4783466;55;21021;-36
2023/05/28 17:52:23;;;;;;;22.23;19.75;;;24.10;66.20;;;;;;4803375;55;21067;-39
2023/05/28 17:57:24;;;;;;;22.98;20.58;;;24.10;66.10;;;;;;4739998;59;21010;-34
2023/05/28 18:02:25;;;;;;;23.42;19.92;;;24.10;66.10;;;;;;4868182;55;21129;-31
2023/05/28 18:07:26;;;;;;;22.77;20.37;;;24.10;66.00;;;;;;4740493;59;21508;-36
2023/05/28 18:12:27;;;;;;;23.02;20.58;;;24.10;66.10;;;;;;4744700;55;21011;-35
2023/05/28 18:17:28;;;;;;;22.80;19.98;;;24.10;66.10;;;;;;4779389;54;21021;-34
2023/05/28 18:22:33;;;;;;;22.02;19.73;;;24.10;66.10;;;;;;4867087;55;21077;-38
2023/05/28 18:27:34;;;;;;;22.45;20.08;;;24.10;66.10;;;;;;4739492;59;21528;-32
2023/05/28 18:32:35;;;;;;;22.87;19.70;;;24.10;66.20;;;;;;4751484;55;21033;-34
2023/05/28 18:37:36;;;;;;;23.75;20.37;;;24.10;66.10;;;;;;4785205;55;21053;-32
2023/05/28 18:42:36;;;;;;;22.23;19.83;;;24.10;66.10;;;;;;4891968;55;21058;-34
2023/05/28 18:47:37;;;;;;;22.73;20.33;;;24.10;66.10;;;;;;4749460;55;21092;-39
2023/05/28 18:52:38;;;;;;;22.30;19.87;;;24.10;66.10;;;;;;4747002;55;21107;-36
2023/05/28 18:57:39;;;;;;;23.25;20.75;;;24.00;66.10;;;;;;4739817;59;21073;-35
2023/05/28 19:02:40;;;;;;;23.00;20.52;;;24.10;66.20;;;;;;4772095;55;21085;-37
2023/05/28 19:07:41;;;;;;;21.55;19.25;;;24.10;66.20;;;;;;4739546;59;21033;-33
2023/05/28 19:12:42;;;;;;;22.25;19.73;;;24.10;66.20;;;;;;4763620;54;21035;-37
2023/05/28 19:17:43;;;;;;;22.30;19.75;;;24.10;66.10;;;;;;4739742;59;22156;-34
2023/05/28 19:22:44;;;;;;;22.70;19.02;;;24.10;66.10;;;;;;4855734;55;21022;-35
2023/05/28 19:27:44;;;;;;;22.42;20.02;;;24.10;66.10;;;;;;4766508;54;21021;-33
2023/05/28 19:32:45;;;;;;;21.45;19.15;;;24.10;66.10;;;;;;4766326;55;20993;-33
2023/05/28 19:37:50;;;;;;;23.80;18.95;;;24.00;66.30;;;;;;4740383;54;21033;-38
2023/05/28 19:42:51;;;;;;;23.77;20.10;;;24.00;66.40;;;;;;4885772;55;21625;-39
2023/05/28 19:47:52;;;;;;;23.15;20.65;;;24.00;66.60;;;;;;4875307;55;21077;-37
2023/05/28 19:52:52;;;;;;;21.77;19.35;;;23.90;66.70;;;;;;4740168;59;21017;-37
2023/05/28 19:57:53;;;;;;;21.50;18.50;;;23.90;67.30;;;;;;4786058;55;21018;-35
2023/05/28 20:02:54;;;;;;;22.67;19.17;;;23.90;66.90;;;;;;4787469;55;21010;-36
2023/05/28 20:07:55;;;;;;;22.37;19.45;;;23.90;66.90;;;;;;4800698;55;21472;-39
2023/05/28 20:12:56;;;;;;;20.12;18.02;;;23.90;66.90;;;;;;4740513;54;21022;-33
2023/05/28 20:17:57;;;;;;;21.15;18.87;;;23.80;66.90;;;;;;4740096;59;21100;-32
2023/05/28 20:22:57;;;;;;;21.58;19.30;;;23.80;66.90;;;;;;4740741;59;21516;-34
2023/05/28 20:27:58;;;;;;;21.15;18.67;;;23.80;66.90;;;;;;4819071;55;21025;-33
2023/05/28 20:32:59;;;;;;;23.95;19.98;;;23.80;66.90;;;;;;4750086;55;21599;-34
2023/05/28 20:38:04;;;;;;;21.23;18.67;;;23.80;67.00;;;;;;4771852;55;21045;-33
2023/05/28 20:43:05;;;;;;;20.83;18.37;;;23.80;66.90;;;;;;4805819;55;21566;-33
2023/05/28 20:48:06;;;;;;;21.12;18.85;;;23.80;66.90;;;;;;4859316;55;21029;-34
2023/05/28 20:53:07;;;;;;;21.10;18.75;;;23.80;66.90;;;;;;4907699;55;21507;-34
2023/05/28 20:58:07;;;;;;;20.25;17.80;;;23.80;66.90;;;;;;4774238;55;21013;-33
2023/05/28 21:03:08;;;;;;;21.42;19.17;;;23.80;66.90;;;;;;4761951;54;21475;-34
2023/05/28 21:08:09;;;;;;;21.20;18.92;;;23.80;66.90;;;;;;4853035;55;21045;-32
2023/05/28 21:13:10;;;;;;;21.45;19.12;;;23.80;66.90;;;;;;4743278;55;21043;-34
2023/05/28 21:18:11;;;;;;;19.58;17.52;;;23.80;67.00;;;;;;4740241;59;21021;-36
2023/05/28 21:23:12;;;;;;;19.27;17.27;;;23.80;66.90;;;;;;4800395;55;21088;-36
2023/05/28 21:28:12;;;;;;;20.30;18.20;;;23.80;66.90;;;;;;4901948;55;21077;-31
2023/05/28 21:33:13;;;;;;;19.65;17.30;;;23.80;67.00;;;;;;4800147;55;21523;-33
2023/05/28 21:38:14;;;;;;;20.88;18.65;;;23.80;66.90;;;;;;4739317;59;21068;-33
2023/05/28 21:43:15;;;;;;;19.77;17.67;;;23.80;66.90;;;;;;4809446;55;21000;-35
2023/05/28 21:48:16;;;;;;;20.62;18.40;;;23.80;66.90;;;;;;4805490;55;21069;-39
2023/05/28 21:53:17;;;;;;;19.08;17.10;;;23.80;67.60;;;;;;4871920;55;21051;-32
2023/05/28 21:58:18;;;;;;;20.73;18.52;;;23.90;67.00;;;;;;4806489;55;21014;-38
2023/05/28 22:03:19;;;;;;;19.55;17.55;;;23.80;66.90;;;;;;4782657;55;21054;-37
2023/05/28 22:08:20;;;;;;;20.20;18.10;;;23.80;66.90;;;;;;4739893;59;21092;-33
2023/05/28 22:13:21;;;;;;;19.83;17.73;;;23.80;66.90;;;;;;4750951;55;21550;-33
2023/05/28 22:18:22;;;;;;;20.27;18.10;;;23.80;66.90;;;;;;4739770;59;21077;-33
2023/05/28 22:23:24;;;;;;;19.73;17.62;;;23.80;66.90;;;;;;5044814;55;21566;-33
2023/05/28 22:28:25;;;;;;;18.80;16.75;;;23.80;66.90;;;;;;4837929;55;21094;-34
2023/05/28 22:33:27;;;;;;;17.73;15.93;;;23.80;66.90;;;;;;4926338;55;21479;-35
2023/05/28 22:38:28;;;;;;;19.45;17.42;;;23.80;67.00;;;;;;4837613;55;21612;-34
2023/05/28 22:43:28;;;;;;;18.30;16.48;;;23.80;66.90;;;;;;4969598;55;21105;-34
2023/05/28 22:48:32;;;;;;;18.80;16.90;;;23.80;67.00;;;;;;4741787;55;21499;-32
2023/05/28 22:53:33;;;;;;;18.33;16.37;;;23.80;66.90;;;;;;4744931;55;21520;-33
2023/05/28 22:58:34;;;;;;;17.65;15.85;;;23.80;67.00;;;;;;4795451;55;21595;-32
2023/05/28 23:03:35;;;;;;;17.50;15.70;;;23.80;66.90;;;;;;4739884;59;20997;-35
2023/05/28 23:08:38;;;;;;;17.90;16.10;;;23.80;67.00;;;;;;4770163;55;21556;-38
2023/05/28 23:13:39;;;;;;;17.48;15.68;;;23.80;67.00;;;;;;4767029;55;21104;-33
2023/05/28 23:18:40;;;;;;;17.70;15.90;;;23.80;66.80;;;;;;4949698;55;21108;-33
2023/05/28 23:23:41;;;;;;;18.00;16.10;;;23.80;67.00;;;;;;4934524;55;21094;-33
2023/05/28 23:28:42;;;;;;;18.37;16.55;;;23.80;67.00;;;;;;4739635;59;21611;-36
2023/05/28 23:33:43;;;;;;;18.70;16.75;;;23.80;67.00;;;;;;4765143;55;21512;-37
2023/05/28 23:38:45;;;;;;;16.92;15.13;;;23.80;67.00;;;;;;4812548;55;21580;-35
2023/05/28 23:43:46;;;;;;;17.58;15.77;;;23.80;67.00;;;;;;4764010;55;21504;-33
2023/05/28 23:48:47;;;;;;;18.00;16.10;;;23.80;67.00;;;;;;4833816;54;21097;-33
2023/05/28 23:53:47;;;;;;;17.20;15.40;;;23.80;67.00;;;;;;4955465;55;21464;-36
2023/05/28 23:58:48;;;;;;;16.95;15.15;;;23.80;67.00;;;;;;4825335;54;20997;-35
